Time;durP1;ratioP1;P1;durP2;ratioP2;P2;SDS_P1;SDS_P2;PMS_P1;PMS_P2;Temp;Humidity;BMP_temperature;BMP_pressure;BME280_temperature;BME280_humidity;BME280_pressure;Samples;Min_cycle;Max_cycle;Signal;HPM_P1;HPM_P2
2023/04/15 00:01:27;;;;;;;22.90;13.80;;;;;;;;;;106002;1288;24204;-86
2023/04/15 00:03:57;;;;;;;25.60;16.20;;;;;;;;;;106305;1284;22604;-81
2023/04/15 00:06:29;;;;;;;30.60;16.40;;;;;;;;;;106420;1284;24620;-79
2023/04/15 00:09:07;;;;;;;24.90;14.80;;;;;;;;;;106444;1283;22528;-81
2023/04/15 00:11:45;;;;;;;27.80;18.60;;;;;;;;;;106627;1283;22533;-84
2023/04/15 00:14:17;;;;;;;29.30;17.50;;;;;;;;;;106723;1256;25227;-83
2023/04/15 00:16:56;;;;;;;28.70;18.30;;;;;;;;;;106888;1275;22577;-80
2023/04/15 00:19:47;;;;;;;;;;;;;;;;;;;;;
2023/04/15 00:22:39;;;;;;;28.40;16.80;;;;;;;;;;106884;1277;25427;-82
2023/04/15 00:25:26;;;;;;;26.80;15.50;;;;;;;;;;106965;1265;24369;-79
2023/04/15 00:28:01;;;;;;;31.70;18.50;;;;;;;;;;106799;1276;24198;-78
2023/04/15 00:30:31;;;;;;;29.20;17.80;;;;;;;;;;106831;1276;22990;-85
2023/04/15 00:33:24;;;;;;;32.90;19.00;;;;;;;;;;106889;1276;23347;-81
2023/04/15 00:36:19;;;;;;;30.80;18.50;;;;;;;;;;106926;1257;22523;-79
2023/04/15 00:39:06;;;;;;;28.50;17.40;;;;;;;;;;106951;1276;24216;-80
2023/04/15 00:41:38;;;;;;;34.00;21.00;;;;;;;;;;106942;1276;22523;-84
2023/04/15 00:44:05;;;;;;;35.20;21.60;;;;;;;;;;106913;1276;23219;-81
2023/04/15 00:46:56;;;;;;;;;;;;;;;;;;;;;
2023/04/15 00:49:23;;;;;;;34.50;19.30;;;;;;;;;;106921;1276;22575;-84
2023/04/15 00:51:53;;;;;;;37.50;20.50;;;;;;;;;;106892;1276;22530;-86
2023/04/15 00:54:43;;;;;;;34.70;22.00;;;;;;;;;;106881;1276;22528;-79
2023/04/15 00:57:37;;;;;;;33.40;21.50;;;;;;;;;;106513;1262;22789;-82
2023/04/15 01:00:14;;;;;;;37.00;22.50;;;;;;;;;;106489;1281;25346;-80
2023/04/15 01:02:44;;;;;;;36.70;20.60;;;;;;;;;;106502;1281;22534;-82
2023/04/15 01:05:11;;;;;;;34.80;21.60;;;;;;;;;;106502;1281;22530;-77
2023/04/15 01:07:53;;;;;;;;;;;;;;;;;;;;;
2023/04/15 01:10:26;;;;;;;37.00;22.20;;;;;;;;;;106560;1274;22631;-82
2023/04/15 01:13:16;;;;;;;37.30;21.80;;;;;;;;;;106476;1281;26561;-78
2023/04/15 01:16:16;;;;;;;32.60;20.30;;;;;;;;;;106463;1259;25320;-80
2023/04/15 01:18:50;;;;;;;34.30;21.20;;;;;;;;;;106505;1280;22543;-80
2023/04/15 01:21:23;;;;;;;33.70;22.00;;;;;;;;;;106544;1280;25210;-80
2023/04/15 01:24:16;;;;;;;36.40;22.50;;;;;;;;;;106572;1280;22530;-79
2023/04/15 01:26:48;;;;;;;35.10;22.10;;;;;;;;;;106509;1281;22726;-84
2023/04/15 01:29:23;;;;;;;36.80;21.20;;;;;;;;;;106458;1281;22632;-83
2023/04/15 01:32:10;;;;;;;34.20;20.90;;;;;;;;;;106479;1280;22665;-81
2023/04/15 01:35:11;;;;;;;;;;;;;;;;;;;;;
2023/04/15 01:37:56;;;;;;;25.80;16.60;;;;;;;;;;106948;1259;22553;-78
2023/04/15 01:40:25;;;;;;;28.80;17.30;;;;;;;;;;106900;1276;24217;-82
2023/04/15 01:43:03;;;;;;;29.50;16.90;;;;;;;;;;106948;1276;25585;-83
2023/04/15 01:45:30;;;;;;;26.80;16.60;;;;;;;;;;106981;1276;24211;-80
2023/04/15 01:47:57;;;;;;;28.20;17.10;;;;;;;;;;106876;1259;25258;-77
2023/04/15 01:50:30;;;;;;;30.60;17.00;;;;;;;;;;106865;1276;24238;-84
2023/04/15 01:53:00;;;;;;;30.20;17.00;;;;;;;;;;106845;1276;22483;-78
2023/04/15 01:55:27;;;;;;;29.90;16.70;;;;;;;;;;106894;1276;24239;-77
2023/04/15 01:58:05;;;;;;;29.60;16.30;;;;;;;;;;106929;1259;25294;-80
2023/04/15 02:01:18;;;;;;;26.80;16.00;;;;;;;;;;106927;1263;23865;-82
2023/04/15 02:04:18;;;;;;;24.60;14.90;;;;;;;;;;106991;1277;24246;-83
2023/04/15 02:06:46;;;;;;;23.90;14.30;;;;;;;;;;107002;1253;22542;-83
2023/04/15 02:09:48;;;;;;;;;;;;;;;;;;;;;
2023/04/15 02:12:50;;;;;;;;;;;;;;;;;;;;;
2023/04/15 02:15:33;;;;;;;20.20;12.60;;;;;;;;;;106601;1281;22596;-82
2023/04/15 02:18:25;;;;;;;21.90;14.10;;;;;;;;;;106591;1263;22527;-82
2023/04/15 02:21:02;;;;;;;24.90;14.30;;;;;;;;;;106472;1281;22598;-80
2023/04/15 02:23:43;;;;;;;21.80;12.30;;;;;;;;;;106506;1258;22555;-81
2023/04/15 02:26:18;;;;;;;21.20;13.00;;;;;;;;;;106496;1281;22782;-83
2023/04/15 02:29:01;;;;;;;23.80;13.60;;;;;;;;;;106501;1275;22649;-84
2023/04/15 02:31:55;;;;;;;21.90;13.00;;;;;;;;;;106575;1281;23244;-83
2023/04/15 02:34:44;;;;;;;20.70;12.50;;;;;;;;;;106527;1281;24384;-81
2023/04/15 02:37:45;;;;;;;;;;;;;;;;;;;;;
2023/04/15 02:40:31;;;;;;;13.50;6.70;;;;;;;;;;106575;1280;25427;-83
2023/04/15 02:43:06;;;;;;;11.40;6.40;;;;;;;;;;106680;1277;22527;-81
2023/04/15 02:45:48;;;;;;;10.40;5.00;;;;;;;;;;106874;1277;22546;-83
2023/04/15 02:48:18;;;;;;;6.60;2.60;;;;;;;;;;106875;1261;24257;-82
2023/04/15 02:51:23;;;;;;;5.80;1.80;;;;;;;;;;106901;1275;24203;-87
2023/04/15 02:54:53;;;;;;;4.20;1.50;;;;;;;;;;106955;1277;24365;-84
2023/04/15 02:57:22;;;;;;;6.00;2.10;;;;;;;;;;106978;1276;22543;-82
2023/04/15 02:59:54;;;;;;;5.70;2.30;;;;;;;;;;106801;1260;22554;-80
2023/04/15 03:02:57;;;;;;;;;;;;;;;;;;;;;
2023/04/15 03:05:49;;;;;;;6.30;2.50;;;;;;;;;;106898;1274;22523;-84
2023/04/15 03:08:24;;;;;;;7.00;2.50;;;;;;;;;;106805;1261;22524;-84
2023/04/15 03:11:18;;;;;;;7.40;2.70;;;;;;;;;;106935;1277;25432;-83
2023/04/15 03:14:14;;;;;;;6.40;2.50;;;;;;;;;;106972;1277;22531;-79
2023/04/15 03:17:16;;;;;;;;;;;;;;;;;;;;;
2023/04/15 03:20:34;;;;;;;5.10;1.70;;;;;;;;;;106890;1253;22520;-86
2023/04/15 03:24:01;;;;;;;2.80;1.00;;;;;;;;;;106921;1277;25329;-84
2023/04/15 03:26:38;;;;;;;2.60;0.90;;;;;;;;;;106946;1277;22573;-84
2023/04/15 03:29:44;;;;;;;3.30;1.10;;;;;;;;;;106933;1270;22536;-86
2023/04/15 03:32:45;;;;;;;3.50;1.20;;;;;;;;;;106945;1275;25334;-81
2023/04/15 03:35:52;;;;;;;4.70;1.60;;;;;;;;;;106935;1275;26247;-83
2023/04/15 03:38:34;;;;;;;4.60;1.90;;;;;;;;;;106968;1276;22605;-78
2023/04/15 03:41:45;;;;;;;3.90;1.50;;;;;;;;;;106748;1261;25226;-83
2023/04/15 03:44:21;;;;;;;3.50;1.50;;;;;;;;;;106918;1276;22779;-83
2023/04/15 03:47:06;;;;;;;4.80;1.20;;;;;;;;;;106887;1276;25364;-80
2023/04/15 03:50:24;;;;;;;3.70;1.10;;;;;;;;;;106971;1259;22526;-80
2023/04/15 03:53:34;;;;;;;3.50;1.40;;;;;;;;;;106814;1276;22523;-77
2023/04/15 03:55:51;;;;;;;4.60;1.70;;;;;;;;;;106417;1283;22539;-82
2023/04/15 03:58:31;;;;;;;5.00;2.10;;;;;;;;;;106473;1283;23205;-82
2023/04/15 04:01:07;;;;;;;4.80;1.90;;;;;;;;;;106449;1267;22546;-80
2023/04/15 04:03:52;;;;;;;4.80;1.80;;;;;;;;;;106350;1283;22550;-80
2023/04/15 04:06:43;;;;;;;5.10;2.00;;;;;;;;;;106311;1283;22792;-80
2023/04/15 04:09:29;;;;;;;5.80;2.50;;;;;;;;;;106403;1283;22518;-82
2023/04/15 04:12:57;;;;;;;3.80;1.50;;;;;;;;;;106480;1265;24282;-84
2023/04/15 04:15:36;;;;;;;4.00;1.40;;;;;;;;;;106492;1274;25238;-80
2023/04/15 04:18:06;;;;;;;4.10;1.60;;;;;;;;;;106445;1283;25282;-84
2023/04/15 04:20:56;;;;;;;5.20;1.70;;;;;;;;;;106452;1267;22627;-85
2023/04/15 04:24:02;;;;;;;5.10;1.70;;;;;;;;;;106435;1283;22534;-82
2023/04/15 04:26:32;;;;;;;4.60;1.90;;;;;;;;;;106440;1283;24218;-81
2023/04/15 04:29:24;;;;;;;5.20;2.10;;;;;;;;;;106415;1283;22536;-80
2023/04/15 04:32:20;;;;;;;5.00;1.80;;;;;;;;;;106494;1265;24908;-82
2023/04/15 04:35:39;;;;;;;;;;;;;;;;;;;;;
2023/04/15 04:39:00;;;;;;;5.10;1.70;;;;;;;;;;106935;1261;25217;-86
2023/04/15 04:41:26;;;;;;;;;;;;;;;;;;;;;
2023/04/15 04:44:06;;;;;;;8.20;2.70;;;;;;;;;;106867;1277;22557;-82
2023/04/15 04:47:02;;;;;;;6.90;2.00;;;;;;;;;;106931;1255;22530;-83
2023/04/15 04:50:09;;;;;;;;;;;;;;;;;;;;;
2023/04/15 04:52:53;;;;;;;5.60;2.30;;;;;;;;;;106886;1261;23123;-86
2023/04/15 04:55:26;;;;;;;4.30;1.70;;;;;;;;;;106929;1276;22523;-83
2023/04/15 04:58:14;;;;;;;;;;;;;;;;;;;;;
2023/04/15 05:00:46;;;;;;;4.50;1.40;;;;;;;;;;106890;1276;22548;-80
2023/04/15 05:03:28;;;;;;;4.40;1.80;;;;;;;;;;106881;1259;25410;-83
2023/04/15 05:05:58;;;;;;;3.90;1.50;;;;;;;;;;106908;1276;25227;-84
2023/04/15 05:08:30;;;;;;;5.40;1.90;;;;;;;;;;106888;1276;22652;-83
2023/04/15 05:11:11;;;;;;;4.40;1.70;;;;;;;;;;106900;1263;24275;-83
2023/04/15 05:13:53;;;;;;;5.40;1.50;;;;;;;;;;106881;1276;26464;-81
2023/04/15 05:17:09;;;;;;;;;;;;;;;;;;;;;
2023/04/15 05:20:52;;;;;;;3.40;1.30;;;;;;;;;;106974;1272;22535;-85
2023/04/15 05:23:25;;;;;;;2.80;1.00;;;;;;;;;;106880;1277;22734;-84
2023/04/15 05:26:22;;;;;;;;;;;;;;;;;;;;;
2023/04/15 05:29:19;;;;;;;;;;;;;;;;;;;;;
2023/04/15 05:32:05;;;;;;;3.70;1.30;;;;;;;;;;106962;1259;23884;-81
2023/04/15 05:35:49;;;;;;;2.80;1.00;;;;;;;;;;106934;1276;24206;-83
2023/04/15 05:38:15;;;;;;;3.50;1.30;;;;;;;;;;106884;1276;22582;-83
2023/04/15 05:40:53;;;;;;;5.40;1.90;;;;;;;;;;106913;1276;22548;-84
2023/04/15 05:43:29;;;;;;;6.00;1.50;;;;;;;;;;106826;1261;23877;-80
2023/04/15 05:46:40;;;;;;;5.60;1.50;;;;;;;;;;106905;1274;24272;-82
2023/04/15 05:49:36;;;;;;;6.00;1.20;;;;;;;;;;106946;1277;24256;-81
2023/04/15 05:52:10;;;;;;;5.00;1.50;;;;;;;;;;106912;1260;24224;-79
2023/04/15 05:54:40;;;;;;;5.10;1.40;;;;;;;;;;107105;1276;25340;-81
2023/04/15 05:57:09;;;;;;;4.40;1.40;;;;;;;;;;106719;1276;22523;-83
2023/04/15 05:59:56;;;;;;;5.30;1.60;;;;;;;;;;106912;1276;22845;-83
2023/04/15 06:03:00;;;;;;;2.60;1.10;;;;;;;;;;106878;1260;22572;-82
2023/04/15 06:05:40;;;;;;;4.20;1.60;;;;;;;;;;106852;1277;22523;-79
2023/04/15 06:08:08;;;;;;;5.50;1.70;;;;;;;;;;106874;1277;22629;-81
2023/04/15 06:11:26;;;;;;;5.40;1.40;;;;;;;;;;106663;1277;22538;-79
2023/04/15 06:14:20;;;;;;;4.70;1.90;;;;;;;;;;106944;1267;22521;-82
2023/04/15 06:17:00;;;;;;;;;;;;;;;;;;;;;
2023/04/15 06:20:07;;;;;;;4.20;1.80;;;;;;;;;;106920;1276;22527;-80
2023/04/15 06:22:39;;;;;;;4.60;1.30;;;;;;;;;;106939;1260;23125;-84
2023/04/15 06:25:28;;;;;;;3.60;1.30;;;;;;;;;;106863;1276;22660;-85
2023/04/15 06:28:10;;;;;;;4.60;1.50;;;;;;;;;;106907;1276;22536;-85
2023/04/15 06:31:11;;;;;;;3.50;1.30;;;;;;;;;;106927;1276;23273;-83
2023/04/15 06:34:22;;;;;;;4.30;1.40;;;;;;;;;;107033;1257;24246;-82
2023/04/15 06:37:04;;;;;;;4.70;1.40;;;;;;;;;;106960;1276;25216;-82
2023/04/15 06:39:36;;;;;;;6.50;2.70;;;;;;;;;;106887;1276;25308;-81
2023/04/15 06:42:13;;;;;;;6.60;2.10;;;;;;;;;;106914;1276;25349;-84
2023/04/15 06:44:56;;;;;;;5.50;2.10;;;;;;;;;;106906;1261;25229;-81
2023/04/15 06:47:50;;;;;;;;;;;;;;;;;;;;;
2023/04/15 06:50:40;;;;;;;5.50;1.90;;;;;;;;;;106998;1275;25471;-80
2023/04/15 06:53:12;;;;;;;6.80;2.10;;;;;;;;;;106974;1253;22570;-80
2023/04/15 06:55:52;;;;;;;4.60;1.80;;;;;;;;;;107064;1273;23048;-81
2023/04/15 06:58:30;;;;;;;5.10;1.50;;;;;;;;;;107116;1275;22548;-82
2023/04/15 07:01:00;;;;;;;3.70;1.20;;;;;;;;;;107277;1270;23600;-83
2023/04/15 07:03:29;;;;;;;5.00;1.70;;;;;;;;;;107065;1254;22490;-80
2023/04/15 07:06:17;;;;;;;4.30;1.70;;;;;;;;;;107063;1275;25347;-85
2023/04/15 07:09:03;;;;;;;3.90;1.30;;;;;;;;;;106663;1276;22591;-83
2023/04/15 07:11:30;;;;;;;5.30;1.80;;;;;;;;;;106695;1271;22778;-79
2023/04/15 07:14:26;;;;;;;5.50;1.70;;;;;;;;;;107080;1260;22569;-80
2023/04/15 07:17:16;;;;;;;5.00;1.30;;;;;;;;;;106964;1276;22557;-83
2023/04/15 07:20:05;;;;;;;5.00;1.70;;;;;;;;;;107058;1270;23378;-80
2023/04/15 07:22:35;;;;;;;5.10;1.50;;;;;;;;;;107105;1269;22520;-82
2023/04/15 07:26:06;;;;;;;5.90;1.80;;;;;;;;;;107011;1260;22779;-81
2023/04/15 07:28:50;;;;;;;;;;;;;;;;;;;;;
2023/04/15 07:31:36;;;;;;;4.10;1.40;;;;;;;;;;107046;1270;24320;-81
2023/04/15 07:34:08;;;;;;;8.10;1.50;;;;;;;;;;106956;1254;25269;-84
2023/04/15 07:36:43;;;;;;;3.30;1.00;;;;;;;;;;106730;1276;24217;-80
2023/04/15 07:39:29;;;;;;;3.70;1.00;;;;;;;;;;106727;1276;22525;-83
2023/04/15 07:41:57;;;;;;;3.60;1.10;;;;;;;;;;106935;1276;22526;-83
2023/04/15 07:44:27;;;;;;;4.40;1.30;;;;;;;;;;106840;1254;22543;-81
2023/04/15 07:59:29;;;;;;;5.40;1.30;;;;;;;;;;103691;1303;544888;-79
2023/04/15 08:02:11;;;;;;;5.80;1.70;;;;;;;;;;106056;1288;22621;-80
2023/04/15 08:04:41;;;;;;;4.30;1.30;;;;;;;;;;106049;1273;22541;-80
2023/04/15 08:07:08;;;;;;;4.30;1.30;;;;;;;;;;106053;1288;22614;-82
2023/04/15 08:09:35;;;;;;;4.50;1.00;;;;;;;;;;106089;1288;24221;-86
2023/04/15 08:12:08;;;;;;;3.60;1.20;;;;;;;;;;102376;1286;5098997;-83
2023/04/15 08:14:37;;;;;;;5.40;1.30;;;;;;;;;;106085;1286;22536;-83
2023/04/15 08:17:06;;;;;;;8.30;2.10;;;;;;;;;;106409;1286;24276;-84
2023/04/15 08:19:36;;;;;;;5.20;1.50;;;;;;;;;;106326;1277;22593;-84
2023/04/15 08:25:16;;;;;;;4.60;1.70;;;;;;;;;;106692;1279;25229;-79
2023/04/15 08:28:03;;;;;;;4.50;1.40;;;;;;;;;;106525;1282;22608;-81
2023/04/15 08:30:43;;;;;;;3.80;1.00;;;;;;;;;;106658;1265;24376;-80
2023/04/15 08:33:13;;;;;;;3.90;1.30;;;;;;;;;;106590;1276;23195;-82
2023/04/15 08:35:40;;;;;;;6.70;1.80;;;;;;;;;;106498;1275;24235;-81
2023/04/15 08:38:14;;;;;;;4.50;1.20;;;;;;;;;;106722;1273;24708;-81
2023/04/15 08:40:45;;;;;;;5.10;1.60;;;;;;;;;;106809;1261;24288;-81
2023/04/15 08:43:25;;;;;;;;;;;;;;;;;;;;;
2023/04/15 08:46:00;;;;;;;5.90;1.80;;;;;;;;;;107061;1278;22525;-80
2023/04/15 08:48:32;;;;;;;7.60;1.80;;;;;;;;;;106911;1275;25261;-82
2023/04/15 08:50:59;;;;;;;3.40;1.00;;;;;;;;;;106811;1263;24244;-80
2023/04/15 08:53:37;;;;;;;3.70;1.00;;;;;;;;;;106859;1278;22564;-92
2023/04/15 08:56:08;;;;;;;3.60;0.80;;;;;;;;;;106797;1273;23097;-80
2023/04/15 08:59:44;;;;;;;1.60;0.50;;;;;;;;;;106538;1278;22647;-80
2023/04/15 09:01:52;;;;;;;1.70;0.60;;;;;;;;;;106641;1278;22503;-81
2023/04/15 09:04:27;;;;;;;2.50;0.70;;;;;;;;;;106785;1272;24193;-81
2023/04/15 09:07:03;;;;;;;2.20;0.60;;;;;;;;;;106606;1278;22582;-80
2023/04/15 09:09:30;;;;;;;2.30;0.80;;;;;;;;;;110095;1279;22151;-79
2023/04/15 09:11:57;;;;;;;2.70;0.60;;;;;;;;;;110223;1257;22105;-80
2023/04/15 09:14:30;;;;;;;1.80;0.70;;;;;;;;;;110219;1269;22630;-81
2023/04/15 09:17:03;;;;;;;5.30;1.70;;;;;;;;;;110125;1278;22951;-81
2023/04/15 09:19:32;;;;;;;4.30;1.60;;;;;;;;;;110123;1272;22574;-80
2023/04/15 09:22:01;;;;;;;4.10;1.50;;;;;;;;;;110174;1260;22312;-79
2023/04/15 09:24:39;;;;;;;4.20;1.40;;;;;;;;;;110147;1278;22321;-78
2023/04/15 09:27:06;;;;;;;3.60;1.10;;;;;;;;;;110136;1278;22797;-79
2023/04/15 09:29:35;;;;;;;2.10;0.70;;;;;;;;;;110240;1278;22111;-79
2023/04/15 09:32:12;;;;;;;2.80;0.90;;;;;;;;;;110451;1262;22922;-79
2023/04/15 09:34:39;;;;;;;3.60;1.40;;;;;;;;;;110205;1278;22134;-79
2023/04/15 09:37:06;;;;;;;3.50;1.20;;;;;;;;;;110222;1278;22904;-77
2023/04/15 09:39:49;;;;;;;4.80;1.30;;;;;;;;;;110203;1278;22208;-79
2023/04/15 09:42:23;;;;;;;3.00;1.10;;;;;;;;;;110563;1260;22106;-79
2023/04/15 09:44:52;;;;;;;3.30;1.20;;;;;;;;;;110652;1276;22104;-79
2023/04/15 09:47:30;;;;;;;3.30;0.80;;;;;;;;;;110461;1276;22124;-79
2023/04/15 09:49:58;;;;;;;4.10;1.20;;;;;;;;;;110453;1276;22041;-80
2023/04/15 09:52:25;;;;;;;3.20;0.90;;;;;;;;;;110431;1257;22134;-79
2023/04/15 09:54:54;;;;;;;2.20;0.70;;;;;;;;;;110603;1276;22084;-77
2023/04/15 09:57:22;;;;;;;1.60;0.60;;;;;;;;;;110576;1276;22326;-79
2023/04/15 09:59:52;;;;;;;2.10;0.50;;;;;;;;;;110482;1276;22165;-79
2023/04/15 10:02:21;;;;;;;1.30;0.40;;;;;;;;;;110632;1257;22786;-78
2023/04/15 10:04:49;;;;;;;1.30;0.30;;;;;;;;;;110467;1276;22368;-78
2023/04/15 10:07:19;;;;;;;0.90;0.40;;;;;;;;;;110596;1276;22135;-78
2023/04/15 10:09:47;;;;;;;0.60;0.30;;;;;;;;;;110308;1276;22094;-79
2023/04/15 10:12:19;;;;;;;1.30;0.40;;;;;;;;;;110828;1254;22155;-80
2023/04/15 10:14:55;;;;;;;1.90;0.70;;;;;;;;;;110573;1276;22272;-79
2023/04/15 10:17:28;;;;;;;2.70;0.40;;;;;;;;;;110331;1276;22204;-79
2023/04/15 10:19:56;;;;;;;0.80;0.40;;;;;;;;;;110436;1276;22852;-80
2023/04/15 10:22:23;;;;;;;1.80;0.60;;;;;;;;;;110527;1259;22116;-76
2023/04/15 10:24:51;;;;;;;2.10;0.60;;;;;;;;;;110336;1276;22879;-78
2023/04/15 10:27:19;;;;;;;2.60;0.70;;;;;;;;;;110431;1276;22171;-77
2023/04/15 10:29:46;;;;;;;1.40;0.50;;;;;;;;;;110431;1276;22199;-81
2023/04/15 10:32:13;;;;;;;2.20;0.60;;;;;;;;;;110489;1254;22155;-78
2023/04/15 10:34:40;;;;;;;1.80;0.50;;;;;;;;;;110433;1276;22145;-76
2023/04/15 10:37:08;;;;;;;1.50;0.40;;;;;;;;;;110470;1276;22119;-77
2023/04/15 10:39:36;;;;;;;1.20;0.50;;;;;;;;;;110433;1276;22152;-78
2023/04/15 10:42:16;;;;;;;3.40;0.80;;;;;;;;;;110503;1254;22115;-78
2023/04/15 10:44:52;;;;;;;2.10;0.50;;;;;;;;;;110418;1276;22162;-78
2023/04/15 10:47:20;;;;;;;1.60;0.50;;;;;;;;;;110428;1263;22130;-76
2023/04/15 10:49:56;;;;;;;1.10;0.50;;;;;;;;;;110406;1276;22131;-78
2023/04/15 10:52:24;;;;;;;1.50;0.70;;;;;;;;;;110343;1257;22237;-76
2023/04/15 10:55:21;;;;;;;3.30;0.60;;;;;;;;;;110414;1276;22642;-77
2023/04/15 10:57:56;;;;;;;3.40;0.80;;;;;;;;;;110310;1276;22215;-78
2023/04/15 11:00:24;;;;;;;2.50;0.70;;;;;;;;;;110318;1276;22132;-80
2023/04/15 11:03:04;;;;;;;1.20;0.60;;;;;;;;;;110401;1257;22878;-78
2023/04/15 11:05:40;;;;;;;1.10;0.50;;;;;;;;;;110443;1276;22132;-77
2023/04/15 11:08:15;;;;;;;1.70;0.60;;;;;;;;;;110488;1276;22128;-73
2023/04/15 11:10:45;;;;;;;1.70;0.50;;;;;;;;;;110406;1276;22106;-77
2023/04/15 11:13:20;;;;;;;2.50;0.90;;;;;;;;;;110683;1254;22788;-76
2023/04/15 11:16:00;;;;;;;1.90;0.60;;;;;;;;;;110169;1276;22247;-77
2023/04/15 11:18:29;;;;;;;1.90;0.60;;;;;;;;;;110442;1276;22297;-88
2023/04/15 11:21:08;;;;;;;3.00;0.80;;;;;;;;;;110221;1276;22115;-80
2023/04/15 11:23:42;;;;;;;3.40;0.90;;;;;;;;;;110513;1260;22196;-82
2023/04/15 11:26:10;;;;;;;2.20;0.60;;;;;;;;;;110371;1276;22123;-79
2023/04/15 11:28:42;;;;;;;2.40;0.50;;;;;;;;;;110415;1277;22797;-78
2023/04/15 11:31:12;;;;;;;2.00;0.70;;;;;;;;;;110393;1277;22122;-80
2023/04/15 11:33:49;;;;;;;1.80;0.60;;;;;;;;;;110458;1259;22126;-77
2023/04/15 11:36:37;;;;;;;2.10;0.40;;;;;;;;;;110435;1277;22989;-79
2023/04/15 11:39:29;;;;;;;3.50;0.70;;;;;;;;;;110324;1277;22160;-78
2023/04/15 11:41:56;;;;;;;2.90;0.80;;;;;;;;;;110170;1277;22147;-76
2023/04/15 11:44:23;;;;;;;2.70;0.70;;;;;;;;;;110665;1259;22153;-78
2023/04/15 11:46:50;;;;;;;3.90;1.00;;;;;;;;;;110405;1277;22109;-79
2023/04/15 11:49:27;;;;;;;3.10;0.90;;;;;;;;;;110419;1277;22194;-80
2023/04/15 11:51:54;;;;;;;2.80;0.80;;;;;;;;;;110387;1277;22105;-81
2023/04/15 11:54:21;;;;;;;3.80;1.40;;;;;;;;;;110445;1256;22000;-82
2023/04/15 11:56:52;;;;;;;5.50;1.50;;;;;;;;;;110399;1277;22944;-79
2023/04/15 11:59:49;;;;;;;;;;;;;;;;;;;;;
2023/04/15 12:02:16;;;;;;;8.10;2.70;;;;;;;;;;110434;1277;22731;-79
2023/04/15 12:04:43;;;;;;;5.40;1.50;;;;;;;;;;110468;1259;22206;-78
2023/04/15 12:07:13;;;;;;;4.40;1.40;;;;;;;;;;110296;1277;22145;-80
2023/04/15 12:09:40;;;;;;;2.90;0.90;;;;;;;;;;110440;1270;22280;-80
2023/04/15 12:12:11;;;;;;;2.80;0.90;;;;;;;;;;110428;1277;22860;-79
2023/04/15 12:14:38;;;;;;;5.10;1.20;;;;;;;;;;110436;1254;22141;-79
2023/04/15 12:17:05;;;;;;;2.10;0.80;;;;;;;;;;110422;1277;22291;-78
2023/04/15 12:19:37;;;;;;;4.80;1.40;;;;;;;;;;110346;1277;22244;-83
2023/04/15 12:22:12;;;;;;;3.10;1.10;;;;;;;;;;110421;1271;22131;-79
2023/04/15 12:24:39;;;;;;;3.70;1.00;;;;;;;;;;110590;1254;22132;-79
2023/04/15 12:27:10;;;;;;;2.00;0.80;;;;;;;;;;110394;1277;22115;-79
2023/04/15 12:29:42;;;;;;;4.00;1.10;;;;;;;;;;110436;1277;22137;-78
2023/04/15 12:32:10;;;;;;;3.90;0.90;;;;;;;;;;110451;1262;22111;-80
2023/04/15 12:34:48;;;;;;;3.20;1.10;;;;;;;;;;110359;1259;22739;-79
2023/04/15 12:37:15;;;;;;;5.10;1.20;;;;;;;;;;110144;1278;22893;-82
2023/04/15 12:39:43;;;;;;;3.40;0.90;;;;;;;;;;110168;1278;21993;-80
2023/04/15 12:42:11;;;;;;;5.80;2.00;;;;;;;;;;110501;1264;22121;-81
2023/04/15 12:44:38;;;;;;;4.90;1.60;;;;;;;;;;110391;1256;22181;-79
2023/04/15 12:47:08;;;;;;;4.10;1.40;;;;;;;;;;110307;1278;22130;-78
2023/04/15 12:49:34;;;;;;;4.10;1.00;;;;;;;;;;110331;1278;22723;-79
2023/04/15 12:52:01;;;;;;;3.80;1.10;;;;;;;;;;110181;1277;22086;-78
2023/04/15 12:54:29;;;;;;;4.90;1.60;;;;;;;;;;110334;1254;22142;-78
2023/04/15 12:56:56;;;;;;;5.00;1.60;;;;;;;;;;110336;1278;22102;-78
2023/04/15 12:59:23;;;;;;;3.00;1.00;;;;;;;;;;110359;1278;22130;-79
2023/04/15 13:01:51;;;;;;;2.40;0.90;;;;;;;;;;110349;1277;22134;-78
2023/04/15 13:04:18;;;;;;;4.70;1.30;;;;;;;;;;110333;1278;22448;-79
2023/04/15 13:06:55;;;;;;;5.10;1.50;;;;;;;;;;110529;1260;22116;-78
2023/04/15 13:09:21;;;;;;;5.10;1.20;;;;;;;;;;110191;1278;22095;-79
2023/04/15 13:11:48;;;;;;;2.40;0.80;;;;;;;;;;110341;1278;22077;-78
2023/04/15 13:14:15;;;;;;;7.40;2.10;;;;;;;;;;110331;1278;22953;-78
2023/04/15 13:16:42;;;;;;;3.80;1.20;;;;;;;;;;110595;1259;22305;-78
2023/04/15 13:19:09;;;;;;;5.00;1.50;;;;;;;;;;110316;1278;22153;-78
2023/04/15 13:21:35;;;;;;;4.00;1.20;;;;;;;;;;110150;1277;22093;-79
2023/04/15 13:24:02;;;;;;;2.50;0.90;;;;;;;;;;110342;1264;22104;-78
2023/04/15 13:26:30;;;;;;;3.30;1.10;;;;;;;;;;110549;1259;22403;-78
2023/04/15 13:28:57;;;;;;;3.30;1.20;;;;;;;;;;110402;1278;22104;-79
2023/04/15 13:31:24;;;;;;;4.50;1.20;;;;;;;;;;110256;1278;22168;-79
2023/04/15 13:33:51;;;;;;;5.40;1.70;;;;;;;;;;110169;1278;22123;-80
2023/04/15 13:36:18;;;;;;;3.30;1.00;;;;;;;;;;110409;1257;22113;-78
2023/04/15 13:38:45;;;;;;;3.10;1.20;;;;;;;;;;110267;1278;22631;-78
2023/04/15 13:41:13;;;;;;;4.80;1.60;;;;;;;;;;110111;1278;22399;-78
2023/04/15 13:43:41;;;;;;;5.70;1.80;;;;;;;;;;110145;1278;22181;-78
2023/04/15 13:46:08;;;;;;;5.00;1.50;;;;;;;;;;110552;1256;22153;-78
2023/04/15 13:48:38;;;;;;;6.40;2.00;;;;;;;;;;110255;1278;22193;-83
2023/04/15 13:51:05;;;;;;;5.60;2.40;;;;;;;;;;110155;1278;22127;-80
2023/04/15 13:53:32;;;;;;;6.70;1.90;;;;;;;;;;110387;1278;22166;-79
2023/04/15 13:56:00;;;;;;;5.00;1.80;;;;;;;;;;110108;1259;22132;-80
2023/04/15 13:58:30;;;;;;;5.50;1.90;;;;;;;;;;110370;1278;22136;-81
2023/04/15 14:00:57;;;;;;;4.30;1.60;;;;;;;;;;110255;1278;22176;-80
2023/04/15 14:03:24;;;;;;;3.00;1.10;;;;;;;;;;110376;1278;22111;-81
2023/04/15 14:05:54;;;;;;;5.50;1.40;;;;;;;;;;110241;1255;22454;-79
2023/04/15 14:08:22;;;;;;;4.70;1.40;;;;;;;;;;110163;1278;22114;-78
2023/04/15 14:10:49;;;;;;;3.60;1.20;;;;;;;;;;110133;1278;22133;-78
2023/04/15 14:13:18;;;;;;;5.10;1.30;;;;;;;;;;110174;1278;22102;-79
2023/04/15 14:15:45;;;;;;;3.50;1.10;;;;;;;;;;110158;1278;22423;-79
2023/04/15 14:18:12;;;;;;;4.20;1.50;;;;;;;;;;110607;1263;22117;-79
2023/04/15 14:20:39;;;;;;;5.10;1.60;;;;;;;;;;110272;1278;22118;-79
2023/04/15 14:23:07;;;;;;;3.70;1.10;;;;;;;;;;110276;1278;22124;-81
2023/04/15 14:25:34;;;;;;;5.20;2.10;;;;;;;;;;110271;1278;22854;-81
2023/04/15 14:28:04;;;;;;;4.90;1.30;;;;;;;;;;110350;1259;22991;-79
2023/04/15 14:30:44;;;;;;;3.30;1.30;;;;;;;;;;110163;1278;22078;-80
2023/04/15 14:33:12;;;;;;;3.50;1.30;;;;;;;;;;110205;1279;22134;-79
2023/04/15 14:35:40;;;;;;;3.80;1.30;;;;;;;;;;110159;1275;22371;-80
2023/04/15 14:38:09;;;;;;;6.80;1.70;;;;;;;;;;110179;1261;22881;-78
2023/04/15 14:40:37;;;;;;;4.50;1.40;;;;;;;;;;110162;1279;22123;-78
2023/04/15 14:43:05;;;;;;;13.00;6.50;;;;;;;;;;110200;1279;22857;-78
2023/04/15 14:45:32;;;;;;;17.40;9.20;;;;;;;;;;110124;1279;22117;-79
2023/04/15 14:48:00;;;;;;;5.10;1.40;;;;;;;;;;110371;1262;22131;-79
2023/04/15 14:50:27;;;;;;;4.20;1.20;;;;;;;;;;110308;1279;21975;-79
2023/04/15 14:52:55;;;;;;;29.50;15.30;;;;;;;;;;110206;1279;22108;-78
2023/04/15 14:55:24;;;;;;;131.00;61.00;;;;;;;;;;110076;1279;22941;-79
2023/04/15 14:57:52;;;;;;;49.00;23.10;;;;;;;;;;110183;1263;22142;-79
2023/04/15 15:00:20;;;;;;;10.10;3.80;;;;;;;;;;110295;1279;22164;-78
2023/04/15 15:02:48;;;;;;;2.80;1.10;;;;;;;;;;110151;1279;22113;-80
2023/04/15 15:05:15;;;;;;;3.90;1.20;;;;;;;;;;110138;1279;22118;-78
2023/04/15 15:07:42;;;;;;;2.90;1.00;;;;;;;;;;110126;1259;22155;-78
2023/04/15 15:10:10;;;;;;;2.60;0.80;;;;;;;;;;110203;1279;22136;-79
2023/04/15 15:12:38;;;;;;;3.50;0.90;;;;;;;;;;110191;1279;22178;-78
2023/04/15 15:15:06;;;;;;;3.00;0.90;;;;;;;;;;110302;1279;22087;-79
2023/04/15 15:17:34;;;;;;;3.00;1.00;;;;;;;;;;110354;1259;22142;-78
2023/04/15 15:20:02;;;;;;;2.30;0.80;;;;;;;;;;110189;1279;22118;-78
2023/04/15 15:22:30;;;;;;;3.60;1.00;;;;;;;;;;110214;1279;22173;-79
2023/04/15 15:25:17;;;;;;;3.40;1.10;;;;;;;;;;110205;1279;22136;-79
2023/04/15 15:27:46;;;;;;;2.50;1.00;;;;;;;;;;110190;1261;22119;-79
2023/04/15 15:30:14;;;;;;;4.50;1.40;;;;;;;;;;110111;1279;22120;-78
2023/04/15 15:32:44;;;;;;;4.10;1.20;;;;;;;;;;110142;1279;22107;-78
2023/04/15 15:35:13;;;;;;;3.40;1.10;;;;;;;;;;110263;1279;22803;-78
2023/04/15 15:37:42;;;;;;;3.70;1.10;;;;;;;;;;110140;1257;22731;-78
2023/04/15 15:40:12;;;;;;;2.90;1.10;;;;;;;;;;110197;1279;22220;-78
2023/04/15 15:42:41;;;;;;;3.60;1.20;;;;;;;;;;110121;1279;21726;-78
2023/04/15 15:45:10;;;;;;;4.00;1.00;;;;;;;;;;110167;1279;22131;-78
2023/04/15 15:47:40;;;;;;;3.60;1.30;;;;;;;;;;110156;1257;22378;-78
2023/04/15 15:50:13;;;;;;;4.40;1.20;;;;;;;;;;110111;1279;22125;-78
2023/04/15 15:52:40;;;;;;;3.50;1.20;;;;;;;;;;110241;1279;22804;-78
2023/04/15 15:55:10;;;;;;;3.90;1.20;;;;;;;;;;110179;1279;22144;-78
2023/04/15 15:57:38;;;;;;;5.80;1.50;;;;;;;;;;110165;1257;22001;-78
2023/04/15 16:00:08;;;;;;;11.20;3.30;;;;;;;;;;110570;1262;22135;-78
2023/04/15 16:02:38;;;;;;;7.20;2.30;;;;;;;;;;110166;1279;22134;-78
2023/04/15 16:05:07;;;;;;;8.50;2.30;;;;;;;;;;110242;1279;22107;-78